createdAt,value
2017-12-25T00:02:15.158Z,8.43
2017-12-25T00:11:13.007Z,6.87
2017-12-25T00:13:40.861Z,7.90
2017-12-25T00:16:08.507Z,11.73
2017-12-25T00:18:36.096Z,7.05
2017-12-25T00:21:04.286Z,7.85
2017-12-25T00:23:31.792Z,8.55
2017-12-25T01:17:46.553Z,13.02
2017-12-25T01:20:14.095Z,13.30
2017-12-25T01:22:41.614Z,14.00
2017-12-25T01:25:09.142Z,13.30
2017-12-25T01:27:36.679Z,14.45
2017-12-25T01:30:04.981Z,14.25
2017-12-25T01:32:32.513Z,15.68
2017-12-25T01:35:00.198Z,13.62
2017-12-25T01:37:27.754Z,13.35
2017-12-25T01:39:55.258Z,13.70
2017-12-25T01:42:22.773Z,13.93
2017-12-25T01:44:50.346Z,13.98
2017-12-25T01:47:17.942Z,13.88
2017-12-25T01:49:45.481Z,12.98
2017-12-25T01:52:13.094Z,13.10
2017-12-25T01:54:40.638Z,13.55
2017-12-25T01:57:33.724Z,12.75
2017-12-25T02:00:04.093Z,11.75
2017-12-25T02:02:32.973Z,11.23
2017-12-25T02:08:26.090Z,11.70
2017-12-25T02:10:54.275Z,12.55
2017-12-25T02:13:22.202Z,11.55
2017-12-25T02:16:46.101Z,11.85
2017-12-25T02:22:03.927Z,12.02
2017-12-25T02:24:31.628Z,12.90
2017-12-25T02:26:59.561Z,12.27
2017-12-25T02:29:27.238Z,11.27
2017-12-25T02:31:55.698Z,10.68
2017-12-25T02:34:23.515Z,11.32
2017-12-25T02:36:51.266Z,12.50
2017-12-25T02:39:19.112Z,10.75
2017-12-25T02:41:46.792Z,11.02
2017-12-25T02:44:14.645Z,11.10
2017-12-25T02:46:42.432Z,11.85
2017-12-25T02:49:10.623Z,11.45
2017-12-25T02:51:38.539Z,11.60
2017-12-25T02:54:06.331Z,10.77
2017-12-25T02:56:34.101Z,11.35
2017-12-25T02:59:02.134Z,12.43
2017-12-25T03:01:30.023Z,12.05
2017-12-25T03:03:57.815Z,11.90
2017-12-25T03:06:25.670Z,10.90
2017-12-25T03:08:53.410Z,13.35
2017-12-25T03:11:21.390Z,12.30
2017-12-25T03:13:49.064Z,13.65
2017-12-25T03:16:17.678Z,14.38
2017-12-25T03:18:45.270Z,16.10
2017-12-25T03:21:12.933Z,14.95
2017-12-25T03:23:40.680Z,16.95
2017-12-25T03:26:09.006Z,16.73
2017-12-25T03:28:36.735Z,15.80
2017-12-25T03:31:04.444Z,13.82
2017-12-25T03:33:32.196Z,13.40
2017-12-25T03:35:59.935Z,13.95
2017-12-25T03:38:27.573Z,14.10
2017-12-25T03:40:55.206Z,13.75
2017-12-25T03:43:23.587Z,12.75
2017-12-25T03:45:52.362Z,13.85
2017-12-25T03:48:20.301Z,12.85
2017-12-25T03:50:48.149Z,11.70
2017-12-25T03:53:15.813Z,10.32
2017-12-25T03:55:45.464Z,11.20
2017-12-25T03:58:14.010Z,9.55
2017-12-25T04:00:41.770Z,10.55
2017-12-25T04:03:11.185Z,9.68
2017-12-25T04:05:38.811Z,8.95
2017-12-25T04:08:06.575Z,9.32
2017-12-25T04:10:35.269Z,9.40
2017-12-25T04:13:06.368Z,10.60
2017-12-25T04:15:35.716Z,10.30
2017-12-25T04:18:03.498Z,7.68
2017-12-25T04:20:31.721Z,10.25
2017-12-25T04:23:09.081Z,10.18
2017-12-25T04:25:36.834Z,9.65
2017-12-25T04:28:04.611Z,9.88
2017-12-25T04:30:33.233Z,10.15
2017-12-25T04:33:03.413Z,9.35
2017-12-25T04:35:31.565Z,10.93
2017-12-25T04:38:00.104Z,9.45
2017-12-25T04:40:27.795Z,11.25
2017-12-25T04:42:55.487Z,10.05
2017-12-25T04:45:23.237Z,10.50
2017-12-25T04:47:52.750Z,9.30
2017-12-25T04:50:20.640Z,9.18
2017-12-25T04:52:48.587Z,8.80
2017-12-25T04:55:16.509Z,9.52
2017-12-25T04:57:44.162Z,9.65
2017-12-25T05:00:11.842Z,8.40
2017-12-25T05:02:40.341Z,9.55
2017-12-25T05:05:11.633Z,10.02
2017-12-25T05:07:39.314Z,8.68
2017-12-25T05:10:06.975Z,8.27
2017-12-25T05:12:34.764Z,7.75
2017-12-25T05:15:02.664Z,6.97
2017-12-25T05:17:30.549Z,7.12
2017-12-25T05:20:02.737Z,6.80
2017-12-25T05:22:31.809Z,7.07
2017-12-25T05:25:00.010Z,6.62
2017-12-25T05:27:27.890Z,6.50
2017-12-25T05:29:55.732Z,5.62
2017-12-25T05:32:23.483Z,5.47
2017-12-25T05:34:51.158Z,5.43
2017-12-25T05:37:19.662Z,5.65
2017-12-25T05:39:47.475Z,7.15
2017-12-25T05:42:20.046Z,6.07
2017-12-25T05:47:32.707Z,9.43
2017-12-25T05:50:03.253Z,6.35
2017-12-25T05:52:39.317Z,6.68
2017-12-25T05:55:07.555Z,4.50
2017-12-25T05:57:39.158Z,5.10
2017-12-25T06:00:08.466Z,5.28
2017-12-25T06:02:36.888Z,4.10
2017-12-25T06:05:04.560Z,4.50
2017-12-25T06:07:36.222Z,6.10
2017-12-25T06:10:03.928Z,5.47
2017-12-25T06:12:32.823Z,6.35
2017-12-25T06:15:06.572Z,5.80
2017-12-25T06:17:34.273Z,6.95
2017-12-25T06:20:02.090Z,7.95
2017-12-25T06:22:29.813Z,6.55
2017-12-25T06:24:57.995Z,7.57
2017-12-25T06:27:25.699Z,7.47
2017-12-25T06:29:53.437Z,7.22
2017-12-25T06:32:31.028Z,8.70
2017-12-25T06:34:59.732Z,8.55
2017-12-25T06:37:30.428Z,8.60
2017-12-25T06:39:58.142Z,11.25
2017-12-25T06:42:26.912Z,8.32
2017-12-25T06:44:59.187Z,10.20
2017-12-25T06:47:28.611Z,10.57
2017-12-25T06:49:56.396Z,13.30
2017-12-25T06:52:25.972Z,12.88
2017-12-25T06:54:54.628Z,13.32
2017-12-25T06:57:22.369Z,13.73
2017-12-25T06:59:51.260Z,14.07
2017-12-25T07:02:18.886Z,15.00
2017-12-25T07:04:47.534Z,13.60
2017-12-25T07:07:15.223Z,16.00
2017-12-25T07:09:42.962Z,12.73
2017-12-25T07:12:10.595Z,14.27
2017-12-25T07:14:42.861Z,14.20
2017-12-25T07:17:13.252Z,13.13
2017-12-25T07:19:42.038Z,14.02
2017-12-25T07:22:09.760Z,14.60
2017-12-25T07:24:37.539Z,14.63
2017-12-25T07:27:05.299Z,14.80
2017-12-25T07:29:33.152Z,14.45
2017-12-25T07:32:01.170Z,15.50
2017-12-25T07:34:29.722Z,15.70
2017-12-25T07:36:58.103Z,16.17
2017-12-25T07:39:25.860Z,15.65
2017-12-25T07:41:53.752Z,14.93
2017-12-25T07:44:21.768Z,16.50
2017-12-25T07:46:49.833Z,15.38
2017-12-25T07:49:17.617Z,14.93
2017-12-25T07:51:50.078Z,14.32
2017-12-25T07:54:17.780Z,14.63
2017-12-25T07:56:46.633Z,15.77
2017-12-25T07:59:15.850Z,14.73
2017-12-25T08:01:44.814Z,16.58
2017-12-25T08:04:12.556Z,16.55
2017-12-25T08:06:40.289Z,14.65
2017-12-25T08:09:10.362Z,14.77
2017-12-25T08:11:38.013Z,15.75
2017-12-25T08:14:06.950Z,14.95
2017-12-25T08:16:34.690Z,15.02
2017-12-25T08:19:02.629Z,15.95
2017-12-25T08:21:30.731Z,16.25
2017-12-25T08:23:59.368Z,16.90
2017-12-25T08:26:28.044Z,14.23
2017-12-25T08:28:56.687Z,15.27
2017-12-25T08:31:26.075Z,17.17
2017-12-25T08:33:54.089Z,14.95
2017-12-25T08:36:22.127Z,16.15
2017-12-25T08:38:50.396Z,15.95
2017-12-25T08:41:19.171Z,14.98
2017-12-25T08:43:47.008Z,17.10
2017-12-25T08:46:15.549Z,16.60
2017-12-25T08:48:43.836Z,15.35
2017-12-25T08:51:12.492Z,18.35
2017-12-25T08:53:40.674Z,17.23
2017-12-25T08:56:08.409Z,16.35
2017-12-25T08:58:43.077Z,15.32
2017-12-25T09:01:11.391Z,16.25
2017-12-25T09:03:39.925Z,16.73
2017-12-25T09:06:07.569Z,15.30
2017-12-25T09:08:35.255Z,15.43
2017-12-25T09:11:02.963Z,15.60
2017-12-25T09:13:30.881Z,13.57
2017-12-25T09:15:58.719Z,13.13
2017-12-25T09:18:27.519Z,14.00
2017-12-25T09:20:55.271Z,12.93
2017-12-25T09:23:24.309Z,13.15
2017-12-25T09:25:52.045Z,13.18
2017-12-25T09:28:19.723Z,12.65
2017-12-25T09:30:48.130Z,12.80
2017-12-25T09:33:15.920Z,13.23
2017-12-25T09:35:44.019Z,12.45
2017-12-25T09:38:11.669Z,12.63
2017-12-25T09:40:39.472Z,13.05
2017-12-25T09:43:07.268Z,12.73
2017-12-25T09:45:35.068Z,13.32
2017-12-25T09:48:02.699Z,12.05
2017-12-25T09:50:30.411Z,12.30
2017-12-25T09:52:58.181Z,10.95
2017-12-25T09:55:25.934Z,11.43
2017-12-25T09:57:53.720Z,11.80
2017-12-25T10:00:21.616Z,11.12
2017-12-25T10:02:49.318Z,10.40
2017-12-25T10:05:17.141Z,9.80
2017-12-25T10:07:45.503Z,10.85
2017-12-25T10:10:13.367Z,11.15
2017-12-25T10:12:41.086Z,10.68
2017-12-25T10:15:09.231Z,11.30
2017-12-25T10:17:37.609Z,10.57
2017-12-25T10:20:05.759Z,11.18
2017-12-25T10:22:33.557Z,9.13
2017-12-25T10:25:03.200Z,11.07
2017-12-25T10:27:31.591Z,10.85
2017-12-25T10:30:00.239Z,10.10
2017-12-25T10:32:28.302Z,10.43
2017-12-25T10:34:57.043Z,10.02
2017-12-25T10:37:24.811Z,10.55
2017-12-25T10:39:52.527Z,10.05
2017-12-25T10:42:20.167Z,10.55
2017-12-25T10:44:47.925Z,9.15
2017-12-25T10:47:16.119Z,9.85
2017-12-25T10:49:44.071Z,16.02
2017-12-25T10:52:11.935Z,11.25
2017-12-25T10:54:39.753Z,9.95
2017-12-25T10:57:07.480Z,9.73
2017-12-25T10:59:35.070Z,9.05
2017-12-25T11:02:03.380Z,9.93
2017-12-25T11:04:31.198Z,8.90
2017-12-25T11:07:00.835Z,9.13
2017-12-25T11:09:28.502Z,9.50
2017-12-25T11:11:56.123Z,8.02
2017-12-25T11:14:24.799Z,8.45
2017-12-25T11:16:52.779Z,8.93
2017-12-25T11:19:20.443Z,8.38
2017-12-25T11:21:48.136Z,8.15
2017-12-25T11:24:15.876Z,9.43
2017-12-25T11:26:48.458Z,8.98
2017-12-25T11:29:16.293Z,9.00
2017-12-25T11:31:43.899Z,9.30
2017-12-25T11:34:11.650Z,9.50
2017-12-25T11:36:39.311Z,8.18
2017-12-25T11:39:06.998Z,9.23
2017-12-25T11:41:34.682Z,10.30
2017-12-25T11:44:02.392Z,11.38
2017-12-25T11:46:30.757Z,8.38
2017-12-25T11:48:58.435Z,9.95
2017-12-25T11:51:26.188Z,10.15
2017-12-25T11:53:54.644Z,7.55
2017-12-25T11:56:22.379Z,8.23
2017-12-25T11:58:50.053Z,9.05
2017-12-25T12:01:17.794Z,8.60
2017-12-25T12:03:45.775Z,8.43
2017-12-25T12:06:14.325Z,9.77
2017-12-25T12:08:42.804Z,8.65
2017-12-25T12:11:11.285Z,8.05
2017-12-25T12:13:39.337Z,8.07
2017-12-25T12:16:07.398Z,7.30
2017-12-25T12:18:35.016Z,7.40
2017-12-25T12:21:03.419Z,8.02
2017-12-25T12:23:31.495Z,8.93
2017-12-25T12:25:59.435Z,7.65
2017-12-25T12:28:27.130Z,6.72
2017-12-25T12:30:55.272Z,6.82
2017-12-25T12:33:22.928Z,7.60
2017-12-25T12:35:50.679Z,7.40
2017-12-25T12:38:18.605Z,7.22
2017-12-25T12:40:46.175Z,6.82
2017-12-25T12:43:13.871Z,7.37
2017-12-25T12:45:41.661Z,7.55
2017-12-25T12:48:09.364Z,6.10
2017-12-25T12:50:37.131Z,7.78
2017-12-25T12:53:04.777Z,7.70
2017-12-25T12:55:32.441Z,6.80
2017-12-25T12:58:00.069Z,6.35
2017-12-25T13:00:28.132Z,7.40
2017-12-25T13:02:56.185Z,6.30
2017-12-25T13:05:23.938Z,7.03
2017-12-25T13:07:52.339Z,6.87
2017-12-25T13:10:20.040Z,6.40
2017-12-25T13:12:47.753Z,7.22
2017-12-25T13:15:15.783Z,7.37
2017-12-25T13:17:43.567Z,7.28
2017-12-25T13:20:11.225Z,7.28
2017-12-25T13:22:38.924Z,6.62
2017-12-25T13:25:07.479Z,6.62
2017-12-25T13:27:35.194Z,7.40
2017-12-25T13:30:02.817Z,6.00
2017-12-25T13:32:30.479Z,6.53
2017-12-25T13:34:58.107Z,7.20
2017-12-25T13:37:25.848Z,6.45
2017-12-25T13:39:53.673Z,6.47
2017-12-25T13:42:21.399Z,6.60
2017-12-25T13:44:49.092Z,7.32
2017-12-25T13:47:16.983Z,5.90
2017-12-25T13:49:44.701Z,6.28
2017-12-25T13:52:12.384Z,6.15
2017-12-25T13:54:40.224Z,6.90
2017-12-25T13:57:07.877Z,6.35
2017-12-25T13:59:35.918Z,6.80
2017-12-25T14:02:03.411Z,7.57
2017-12-25T14:04:30.868Z,6.50
2017-12-25T14:06:58.312Z,6.43
2017-12-25T14:09:25.786Z,5.93
2017-12-25T14:11:53.271Z,6.40
2017-12-25T14:14:20.946Z,6.60
2017-12-25T14:16:48.424Z,7.65
2017-12-25T14:19:15.878Z,6.85
2017-12-25T14:21:43.517Z,6.85
2017-12-25T14:24:10.991Z,6.20
2017-12-25T14:26:38.455Z,7.68
2017-12-25T14:29:06.900Z,6.82
2017-12-25T14:31:34.530Z,6.47
2017-12-25T14:34:01.994Z,6.62
2017-12-25T14:36:29.465Z,6.65
2017-12-25T14:38:57.258Z,7.22
2017-12-25T14:41:25.534Z,6.37
2017-12-25T14:43:53.770Z,6.40
2017-12-25T14:46:21.243Z,6.87
2017-12-25T14:48:48.727Z,5.95
2017-12-25T14:51:16.166Z,9.45
2017-12-25T14:53:43.695Z,7.55
2017-12-25T14:56:11.231Z,6.72
2017-12-25T14:58:38.694Z,7.03
2017-12-25T15:01:06.173Z,5.55
2017-12-25T15:03:33.633Z,6.55
2017-12-25T15:06:01.094Z,6.55
2017-12-25T15:08:29.133Z,6.10
2017-12-25T15:10:56.598Z,5.30
2017-12-25T15:13:24.106Z,5.12
2017-12-25T15:15:51.630Z,4.70
2017-12-25T15:18:19.097Z,5.93
2017-12-25T15:20:46.630Z,5.95
2017-12-25T15:23:14.104Z,4.95
2017-12-25T15:25:41.598Z,5.32
2017-12-25T15:28:10.039Z,5.20
2017-12-25T15:30:37.854Z,5.90
2017-12-25T15:33:06.111Z,4.18
2017-12-25T15:35:33.639Z,4.12
2017-12-25T15:38:01.139Z,5.37
2017-12-25T15:40:28.754Z,5.55
2017-12-25T15:42:56.218Z,5.12
2017-12-25T15:45:23.678Z,4.90
2017-12-25T15:47:51.161Z,5.80
2017-12-25T15:50:19.688Z,5.75
2017-12-25T15:52:47.175Z,6.78
2017-12-25T15:55:14.651Z,6.18
2017-12-25T15:57:42.141Z,6.32
2017-12-25T16:00:09.723Z,5.60
2017-12-25T16:02:37.173Z,5.72
2017-12-25T16:05:04.739Z,5.80
2017-12-25T16:07:32.479Z,8.32
2017-12-25T16:09:59.959Z,5.50
2017-12-25T16:12:27.498Z,5.60
2017-12-25T16:14:54.986Z,5.72
2017-12-25T16:17:23.128Z,6.68
2017-12-25T16:19:50.659Z,5.62
2017-12-25T16:22:18.916Z,5.57
2017-12-25T16:24:46.399Z,5.68
2017-12-25T16:27:14.626Z,4.80
2017-12-25T16:29:42.124Z,6.60
2017-12-25T16:32:09.737Z,5.82
2017-12-25T16:34:37.199Z,7.20
2017-12-25T16:37:04.655Z,4.75
2017-12-25T16:39:32.159Z,4.85
2017-12-25T16:42:00.432Z,5.15
2017-12-25T16:44:28.038Z,5.18
2017-12-25T16:46:55.603Z,5.10
2017-12-25T16:49:26.004Z,5.10
2017-12-25T16:51:53.492Z,5.15
2017-12-25T16:54:20.985Z,5.68
2017-12-25T16:56:48.682Z,5.35
2017-12-25T16:59:20.888Z,4.68
2017-12-25T17:01:49.199Z,5.53
2017-12-25T17:04:17.021Z,5.00
2017-12-25T17:06:44.588Z,4.50
2017-12-25T17:09:12.089Z,4.35
2017-12-25T17:11:41.146Z,5.12
2017-12-25T17:14:08.897Z,3.92
2017-12-25T17:16:36.401Z,4.15
2017-12-25T17:19:06.744Z,4.37
2017-12-25T17:21:34.284Z,3.80
2017-12-25T17:24:01.788Z,3.55
2017-12-25T17:26:29.394Z,4.10
2017-12-25T17:28:57.696Z,3.75
2017-12-25T17:31:25.231Z,4.87
2017-12-25T17:33:52.702Z,3.92
2017-12-25T17:36:20.762Z,4.37
2017-12-25T17:38:50.165Z,5.03
2017-12-25T17:41:17.894Z,3.95
2017-12-25T17:43:45.386Z,4.70
2017-12-25T17:46:12.958Z,4.10
2017-12-25T17:48:41.921Z,3.35
2017-12-25T17:51:09.406Z,5.60
2017-12-25T17:53:36.891Z,4.95
2017-12-25T17:56:04.362Z,5.40
2017-12-25T17:58:31.827Z,5.37
2017-12-25T18:00:59.605Z,5.62
2017-12-25T18:03:27.113Z,5.68
2017-12-25T18:05:54.599Z,6.72
2017-12-25T18:08:22.110Z,5.87
2017-12-25T18:10:49.600Z,5.50
2017-12-25T18:13:17.516Z,6.72
2017-12-25T18:15:45.063Z,6.22
2017-12-25T18:18:12.540Z,6.18
2017-12-25T18:20:41.214Z,5.72
2017-12-25T18:23:09.575Z,6.45
2017-12-25T18:25:37.065Z,6.85
2017-12-25T18:28:04.523Z,5.30
2017-12-25T18:30:32.296Z,5.75
2017-12-25T18:32:59.777Z,6.80
2017-12-25T18:35:29.002Z,6.28
2017-12-25T18:37:58.444Z,6.35
2017-12-25T18:40:26.012Z,6.97
2017-12-25T18:42:55.616Z,7.87
2017-12-25T18:45:24.109Z,7.18
2017-12-25T18:47:51.622Z,6.53
2017-12-25T18:50:20.867Z,6.82
2017-12-25T18:52:49.219Z,7.05
2017-12-25T18:55:16.692Z,5.97
2017-12-25T18:57:46.406Z,6.87
2017-12-25T19:00:15.806Z,7.10
2017-12-25T19:02:43.418Z,6.53
2017-12-25T19:05:11.034Z,5.85
2017-12-25T19:07:38.492Z,6.75
2017-12-25T19:10:05.975Z,5.20
2017-12-25T19:12:33.449Z,6.28
2017-12-25T19:15:00.947Z,5.93
2017-12-25T19:17:29.236Z,4.72
2017-12-25T19:19:58.489Z,5.35
2017-12-25T19:22:26.064Z,5.72
2017-12-25T19:24:53.552Z,5.53
2017-12-25T19:27:21.019Z,6.45
2017-12-25T19:29:48.487Z,5.47
2017-12-25T19:32:15.957Z,5.07
2017-12-25T19:34:43.471Z,5.85
2017-12-25T19:37:10.928Z,5.87
2017-12-25T19:39:39.172Z,4.93
2017-12-25T19:42:06.650Z,6.20
2017-12-25T19:44:34.124Z,6.12
2017-12-25T19:47:01.631Z,6.12
2017-12-25T19:49:29.087Z,7.47
2017-12-25T19:51:56.929Z,8.77
2017-12-25T19:54:24.481Z,10.48
2017-12-25T19:56:51.966Z,8.50
2017-12-25T19:59:19.470Z,10.75
2017-12-25T20:01:47.779Z,12.48
2017-12-25T20:04:15.264Z,12.07
2017-12-25T20:06:42.784Z,12.68
2017-12-25T20:09:10.334Z,15.20
2017-12-25T20:11:37.869Z,14.75
2017-12-25T20:14:05.364Z,15.27
2017-12-25T20:16:32.858Z,15.27
2017-12-25T20:19:00.571Z,15.93
2017-12-25T20:21:28.110Z,15.05
2017-12-25T20:23:55.585Z,15.20
2017-12-25T20:26:23.054Z,15.52
2017-12-25T20:28:50.531Z,12.93
2017-12-25T20:31:18.234Z,15.25
2017-12-25T20:33:45.731Z,14.05
2017-12-25T20:36:13.218Z,13.95
2017-12-25T20:38:40.689Z,14.82
2017-12-25T20:41:08.274Z,13.68
2017-12-25T20:43:36.043Z,13.18
2017-12-25T20:46:04.426Z,12.75
2017-12-25T20:48:32.670Z,13.30
2017-12-25T20:51:00.180Z,12.35
2017-12-25T20:53:27.643Z,12.77
2017-12-25T20:55:56.306Z,13.13
2017-12-25T20:58:24.579Z,13.00
2017-12-25T21:00:52.085Z,12.63
2017-12-25T21:03:19.579Z,11.82
2017-12-25T21:05:47.063Z,12.30
2017-12-25T21:08:14.827Z,13.18
2017-12-25T21:10:42.809Z,11.05
2017-12-25T21:13:10.870Z,10.68
2017-12-25T21:15:38.695Z,11.40
2017-12-25T21:18:06.259Z,11.55
2017-12-25T21:20:34.872Z,11.82
2017-12-25T21:23:05.998Z,10.30
2017-12-25T21:25:33.837Z,11.15
2017-12-25T21:28:01.458Z,10.60
2017-12-25T21:30:29.009Z,11.23
2017-12-25T21:32:56.664Z,11.98
2017-12-25T21:35:24.358Z,10.25
2017-12-25T21:37:53.697Z,10.45
2017-12-25T21:43:21.596Z,10.32
2017-12-25T21:45:49.120Z,8.98
2017-12-25T21:48:16.636Z,9.40
2017-12-25T21:50:47.211Z,10.55
2017-12-25T21:53:14.841Z,9.70
2017-12-25T21:55:43.969Z,10.38
2017-12-25T21:58:15.075Z,10.88
2017-12-25T22:00:45.547Z,10.05
2017-12-25T22:03:13.080Z,11.02
2017-12-25T22:05:42.669Z,11.15
2017-12-25T22:08:10.151Z,11.57
2017-12-25T22:10:38.941Z,9.80
2017-12-25T22:13:12.914Z,11.40
2017-12-25T22:15:40.496Z,12.13
2017-12-25T22:20:51.357Z,14.90
2017-12-25T22:23:19.027Z,13.48
2017-12-25T22:25:49.759Z,13.35
2017-12-25T22:28:17.477Z,13.00
2017-12-25T22:30:45.230Z,12.13
2017-12-25T22:33:12.847Z,13.30
2017-12-25T22:35:40.567Z,13.30
2017-12-25T22:38:08.046Z,13.45
2017-12-25T22:40:35.693Z,14.32
2017-12-25T22:43:03.175Z,13.05
2017-12-25T22:45:30.846Z,13.48
2017-12-25T22:47:58.466Z,13.70
2017-12-25T22:50:26.799Z,14.68
2017-12-25T22:52:54.305Z,13.43
2017-12-25T22:55:21.894Z,11.60
2017-12-25T22:57:49.453Z,11.82
2017-12-25T23:00:20.131Z,11.27
2017-12-25T23:02:49.842Z,11.68
2017-12-25T23:05:19.987Z,10.70
2017-12-25T23:07:51.861Z,10.90
2017-12-25T23:10:19.383Z,11.70
2017-12-25T23:12:46.964Z,8.98
2017-12-25T23:15:14.517Z,9.70
2017-12-25T23:17:41.998Z,9.32
2017-12-25T23:20:09.861Z,9.85
2017-12-25T23:22:37.438Z,9.40
2017-12-25T23:25:05.211Z,9.60
2017-12-25T23:27:53.453Z,8.50
2017-12-25T23:30:25.493Z,9.27
2017-12-25T23:35:36.287Z,8.98
2017-12-25T23:38:09.751Z,8.52
2017-12-25T23:54:33.858Z,7.57
2017-12-25T23:57:02.841Z,7.53
2017-12-25T23:59:33.834Z,6.47
